This is the latest recevied weather packets stored in our database for station/object VE2CSM-13. If no packets are shown the sender has not sent any weather packets the latest 10 day(s).
| Time | Temp. | Humidity | Pressure | Rain* | Wind** | Luminosity | Snow |
|---|---|---|---|---|---|---|---|
| 1777789022 | 1.11° C | 95% | 1021.1 hPa | 0 mm | - | - | - |
| 1777788783 | 1.11° C | 95% | 1021.1 hPa | 0 mm | - | - | - |
| 1777788662 | 1.11° C | 95% | 1021.1 hPa | 0 mm | - | - | - |
| 1777788542 | 1.11° C | 95% | 1021.1 hPa | 0 mm | - | - | - |
| 1777788422 | 1.11° C | 95% | 1021 hPa | 0 mm | - | - | - |
| 1777788302 | 1.11° C | 95% | 1021 hPa | 0 mm | - | - | - |
| 1777788184 | 1.11° C | 95% | 1021 hPa | 0 mm | - | - | - |
| 1777788122 | 1.11° C | 95% | 1021 hPa | 0 mm | - | - | - |
| 1777785422 | 2.22° C | 94% | 1021.2 hPa | 0 mm | - | - | - |
| 1777783622 | 2.78° C | 94% | 1021.3 hPa | 0 mm | - | - | - |
| 1777781822 | 2.78° C | 94% | 1021.6 hPa | 0 mm | - | - | - |
| 1777780024 | 3.33° C | 94% | 1021.7 hPa | 0 mm | - | - | - |
| 1777778222 | 3.33° C | 93% | 1021.8 hPa | 0 mm | - | - | - |
| 1777776422 | 3.33° C | 93% | 1022.1 hPa | 0 mm | - | - | - |
| 1777774622 | 3.33° C | 92% | 1021.9 hPa | 0 mm | - | - | - |
| 1777772822 | 3.89° C | 91% | 1022.2 hPa | 0.51 mm | - | - | - |
| 1777771023 | 4.44° C | 91% | 1021.9 hPa | 3.05 mm | - | - | - |
| 1777765626 | 6.11° C | 81% | 1021.1 hPa | 0 mm | - | - | - |
| 1777763827 | 7.22° C | 77% | 1021.2 hPa | 0 mm | - | - | - |
| 1777760222 | 7.22° C | 77% | 1021.3 hPa | 0 mm | - | - | - |
| 1777751222 | 7.22° C | 72% | 1021.8 hPa | 0 mm | - | - | - |
| 1777742223 | 9.44° C | 50% | 1021.8 hPa | 0 mm | - | - | - |
| 1777738622 | 8.89° C | 49% | 1022.4 hPa | 0 mm | - | - | - |
| 1777735022 | 7.78° C | 44% | 1023 hPa | 0 mm | - | - | - |
| 1777731423 | 6.67° C | 50% | 1023.5 hPa | 0 mm | - | - | - |
* Rain latest hour (hover to see other rain measurements)
** Current wind speed in m/s (hover to see current wind gust speed)